sensor_id;sensor_type;location;lat;lon;timestamp;pressure;altitude;pressure_sealevel;temperature;humidity
54666;BME280;40566;50.006;36.180;2023-02-11T00:00:03;100914.75;;;-4.84;63.53
54666;BME280;40566;50.006;36.180;2023-02-11T00:05:04;100918.84;;;-4.86;63.63
54666;BME280;40566;50.006;36.180;2023-02-11T00:10:05;100921.19;;;-4.89;63.73
54666;BME280;40566;50.006;36.180;2023-02-11T00:15:07;100924.50;;;-4.90;63.43
54666;BME280;40566;50.006;36.180;2023-02-11T00:20:08;100922.38;;;-4.82;63.31
54666;BME280;40566;50.006;36.180;2023-02-11T00:25:09;100928.47;;;-4.79;63.21
54666;BME280;40566;50.006;36.180;2023-02-11T00:30:10;100925.84;;;-4.80;63.05
54666;BME280;40566;50.006;36.180;2023-02-11T00:35:10;100924.69;;;-4.87;63.18
54666;BME280;40566;50.006;36.180;2023-02-11T00:40:11;100913.31;;;-4.95;63.38
54666;BME280;40566;50.006;36.180;2023-02-11T00:45:12;100914.47;;;-5.05;63.54
54666;BME280;40566;50.006;36.180;2023-02-11T00:50:12;100900.03;;;-5.07;63.38
54666;BME280;40566;50.006;36.180;2023-02-11T00:55:13;100918.97;;;-4.99;63.12
54666;BME280;40566;50.006;36.180;2023-02-11T01:00:14;100909.66;;;-5.00;62.93
54666;BME280;40566;50.006;36.180;2023-02-11T01:05:15;100911.34;;;-5.15;63.44
54666;BME280;40566;50.006;36.180;2023-02-11T01:10:16;100901.22;;;-5.17;63.42
54666;BME280;40566;50.006;36.180;2023-02-11T01:15:18;100909.00;;;-5.12;63.30
54666;BME280;40566;50.006;36.180;2023-02-11T01:20:21;100908.69;;;-5.19;63.46
54666;BME280;40566;50.006;36.180;2023-02-11T01:25:22;100906.50;;;-5.12;63.04
54666;BME280;40566;50.006;36.180;2023-02-11T01:30:23;100909.53;;;-5.18;63.12
54666;BME280;40566;50.006;36.180;2023-02-11T01:35:24;100910.41;;;-5.18;62.97
54666;BME280;40566;50.006;36.180;2023-02-11T01:40:24;100916.06;;;-5.22;63.02
54666;BME280;40566;50.006;36.180;2023-02-11T01:50:45;100913.91;;;-5.30;63.06
54666;BME280;40566;50.006;36.180;2023-02-11T01:55:47;100903.66;;;-5.33;63.18
54666;BME280;40566;50.006;36.180;2023-02-11T02:01:07;100906.50;;;-5.27;62.84
54666;BME280;40566;50.006;36.180;2023-02-11T02:06:25;100908.16;;;-5.28;62.56
54666;BME280;40566;50.006;36.180;2023-02-11T02:11:27;100893.75;;;-5.30;62.60
54666;BME280;40566;50.006;36.180;2023-02-11T02:16:33;100902.34;;;-5.27;62.33
54666;BME280;40566;50.006;36.180;2023-02-11T02:27:49;100907.81;;;-5.19;62.34
54666;BME280;40566;50.006;36.180;2023-02-11T02:33:07;100905.78;;;-5.10;62.25
54666;BME280;40566;50.006;36.180;2023-02-11T02:43:48;100918.84;;;-4.86;61.97
54666;BME280;40566;50.006;36.180;2023-02-11T02:48:49;100908.13;;;-4.82;61.88
54666;BME280;40566;50.006;36.180;2023-02-11T03:05:12;100896.94;;;-4.70;61.86
54666;BME280;40566;50.006;36.180;2023-02-11T03:10:24;100892.28;;;-4.63;61.83
54666;BME280;40566;50.006;36.180;2023-02-11T03:15:29;100885.09;;;-4.55;61.81
54666;BME280;40566;50.006;36.180;2023-02-11T03:20:35;100886.75;;;-4.39;61.39
54666;BME280;40566;50.006;36.180;2023-02-11T03:25:43;100885.88;;;-4.23;61.19
54666;BME280;40566;50.006;36.180;2023-02-11T03:30:53;100883.22;;;-4.26;61.28
54666;BME280;40566;50.006;36.180;2023-02-11T03:35:58;100889.19;;;-4.24;61.36
54666;BME280;40566;50.006;36.180;2023-02-11T03:41:01;100885.56;;;-4.29;61.63
54666;BME280;40566;50.006;36.180;2023-02-11T03:46:04;100887.53;;;-4.24;61.69
54666;BME280;40566;50.006;36.180;2023-02-11T03:51:07;100868.66;;;-4.14;61.35
54666;BME280;40566;50.006;36.180;2023-02-11T03:56:13;100877.47;;;-4.06;61.37
54666;BME280;40566;50.006;36.180;2023-02-11T04:01:14;100872.34;;;-4.07;61.40
54666;BME280;40566;50.006;36.180;2023-02-11T04:06:15;100872.34;;;-4.07;61.31
54666;BME280;40566;50.006;36.180;2023-02-11T04:11:16;100871.09;;;-4.15;61.71
54666;BME280;40566;50.006;36.180;2023-02-11T04:16:16;100876.88;;;-4.18;61.72
54666;BME280;40566;50.006;36.180;2023-02-11T04:21:17;100889.25;;;-4.23;61.78
54666;BME280;40566;50.006;36.180;2023-02-11T04:26:18;100890.78;;;-4.43;62.07
54666;BME280;40566;50.006;36.180;2023-02-11T04:31:18;100891.72;;;-4.73;62.57
54666;BME280;40566;50.006;36.180;2023-02-11T04:36:19;100881.53;;;-4.91;62.86
54666;BME280;40566;50.006;36.180;2023-02-11T04:41:20;100881.88;;;-4.85;62.70
54666;BME280;40566;50.006;36.180;2023-02-11T04:46:20;100892.28;;;-4.63;62.22
54666;BME280;40566;50.006;36.180;2023-02-11T04:51:21;100893.78;;;-4.50;61.82
54666;BME280;40566;50.006;36.180;2023-02-11T04:56:21;100893.72;;;-4.51;61.73
54666;BME280;40566;50.006;36.180;2023-02-11T05:01:22;100888.03;;;-4.47;61.87
54666;BME280;40566;50.006;36.180;2023-02-11T05:06:23;100886.63;;;-4.42;61.88
54666;BME280;40566;50.006;36.180;2023-02-11T05:11:24;100875.53;;;-4.28;61.63
54666;BME280;40566;50.006;36.180;2023-02-11T05:16:25;100879.22;;;-4.21;61.31
54666;BME280;40566;50.006;36.180;2023-02-11T05:21:26;100887.28;;;-4.12;61.38
54666;BME280;40566;50.006;36.180;2023-02-11T05:26:26;100877.78;;;-4.00;61.19
54666;BME280;40566;50.006;36.180;2023-02-11T05:31:27;100879.75;;;-3.94;61.18
54666;BME280;40566;50.006;36.180;2023-02-11T05:36:28;100867.41;;;-3.88;61.17
54666;BME280;40566;50.006;36.180;2023-02-11T05:41:29;100861.41;;;-3.90;61.27
54666;BME280;40566;50.006;36.180;2023-02-11T05:46:29;100856.50;;;-3.87;61.34
54666;BME280;40566;50.006;36.180;2023-02-11T05:51:30;100858.78;;;-3.91;61.46
54666;BME280;40566;50.006;36.180;2023-02-11T05:56:30;100862.81;;;-3.95;61.65
54666;BME280;40566;50.006;36.180;2023-02-11T06:01:31;100862.63;;;-3.82;61.52
54666;BME280;40566;50.006;36.180;2023-02-11T06:06:31;100860.69;;;-3.69;61.11
54666;BME280;40566;50.006;36.180;2023-02-11T06:11:32;100851.84;;;-3.61;60.92
54666;BME280;40566;50.006;36.180;2023-02-11T06:16:33;100843.31;;;-3.63;61.25
54666;BME280;40566;50.006;36.180;2023-02-11T06:21:33;100837.53;;;-3.61;61.24
54666;BME280;40566;50.006;36.180;2023-02-11T06:26:34;100827.19;;;-3.65;61.37
54666;BME280;40566;50.006;36.180;2023-02-11T06:31:36;100833.53;;;-3.55;61.28
54666;BME280;40566;50.006;36.180;2023-02-11T06:36:38;100824.66;;;-3.47;61.34
54666;BME280;40566;50.006;36.180;2023-02-11T06:41:40;100833.22;;;-3.26;60.86
54666;BME280;40566;50.006;36.180;2023-02-11T06:46:40;100828.88;;;-3.28;61.09
54666;BME280;40566;50.006;36.180;2023-02-11T06:51:41;100836.25;;;-3.33;61.14
54666;BME280;40566;50.006;36.180;2023-02-11T06:56:42;100842.09;;;-3.34;61.19
54666;BME280;40566;50.006;36.180;2023-02-11T07:01:43;100843.56;;;-3.39;61.31
54666;BME280;40566;50.006;36.180;2023-02-11T07:06:43;100839.75;;;-3.49;61.63
54666;BME280;40566;50.006;36.180;2023-02-11T07:11:44;100833.59;;;-3.36;61.44
54666;BME280;40566;50.006;36.180;2023-02-11T07:16:44;100837.63;;;-3.22;61.19
54666;BME280;40566;50.006;36.180;2023-02-11T07:21:45;100839.63;;;-3.14;60.93
54666;BME280;40566;50.006;36.180;2023-02-11T07:26:46;100847.16;;;-2.96;60.94
54666;BME280;40566;50.006;36.180;2023-02-11T07:31:46;100838.31;;;-2.87;60.62
54666;BME280;40566;50.006;36.180;2023-02-11T07:36:47;100837.22;;;-2.74;60.33
54666;BME280;40566;50.006;36.180;2023-02-11T07:41:49;100836.88;;;-2.62;60.40
54666;BME280;40566;50.006;36.180;2023-02-11T07:46:50;100830.53;;;-2.52;60.32
54666;BME280;40566;50.006;36.180;2023-02-11T07:51:50;100833.75;;;-2.35;60.29
54666;BME280;40566;50.006;36.180;2023-02-11T07:56:51;100832.34;;;-2.09;59.84
54666;BME280;40566;50.006;36.180;2023-02-11T08:01:52;100827.81;;;-1.95;59.75
54666;BME280;40566;50.006;36.180;2023-02-11T08:06:53;100832.22;;;-1.91;59.82
54666;BME280;40566;50.006;36.180;2023-02-11T08:11:56;100826.22;;;-1.93;59.98
54666;BME280;40566;50.006;36.180;2023-02-11T08:16:57;100815.38;;;-2.10;60.68
54666;BME280;40566;50.006;36.180;2023-02-11T08:21:57;100812.13;;;-2.27;61.11
54666;BME280;40566;50.006;36.180;2023-02-11T08:27:00;100809.75;;;-2.24;61.12
54666;BME280;40566;50.006;36.180;2023-02-11T08:32:01;100796.28;;;-2.23;61.01
54666;BME280;40566;50.006;36.180;2023-02-11T08:37:02;100789.47;;;-2.24;61.20
54666;BME280;40566;50.006;36.180;2023-02-11T08:42:02;100787.25;;;-2.16;60.91
54666;BME280;40566;50.006;36.180;2023-02-11T08:47:04;100778.03;;;-2.14;61.05
54666;BME280;40566;50.006;36.180;2023-02-11T08:52:04;100774.50;;;-1.97;60.77
54666;BME280;40566;50.006;36.180;2023-02-11T08:57:06;100770.16;;;-1.78;60.33
54666;BME280;40566;50.006;36.180;2023-02-11T09:02:10;100768.13;;;-1.87;60.59
54666;BME280;40566;50.006;36.180;2023-02-11T09:07:11;100770.38;;;-1.95;60.95
54666;BME280;40566;50.006;36.180;2023-02-11T09:12:12;100758.91;;;-1.85;60.80
54666;BME280;40566;50.006;36.180;2023-02-11T09:17:13;100761.31;;;-1.88;60.78
54666;BME280;40566;50.006;36.180;2023-02-11T09:22:13;100755.31;;;-1.90;60.93
54666;BME280;40566;50.006;36.180;2023-02-11T09:27:14;100755.97;;;-1.73;60.75
54666;BME280;40566;50.006;36.180;2023-02-11T09:32:14;100739.59;;;-1.59;60.37
54666;BME280;40566;50.006;36.180;2023-02-11T09:37:15;100734.00;;;-1.50;60.46
54666;BME280;40566;50.006;36.180;2023-02-11T09:42:38;100727.28;;;-1.26;59.90
54666;BME280;40566;50.006;36.180;2023-02-11T09:47:46;100718.44;;;-1.13;59.67
54666;BME280;40566;50.006;36.180;2023-02-11T09:57:57;100708.34;;;-1.11;59.88
54666;BME280;40566;50.006;36.180;2023-02-11T10:03:20;100702.44;;;-0.86;59.36
54666;BME280;40566;50.006;36.180;2023-02-11T10:08:38;100690.53;;;-0.87;59.59
54666;BME280;40566;50.006;36.180;2023-02-11T10:13:49;100680.50;;;-0.84;59.66
54666;BME280;40566;50.006;36.180;2023-02-11T10:24:03;100675.88;;;-0.70;59.97
54666;BME280;40566;50.006;36.180;2023-02-11T10:34:24;100660.81;;;-0.64;60.00
54666;BME280;40566;50.006;36.180;2023-02-11T10:39:26;100650.59;;;-0.66;60.25
54666;BME280;40566;50.006;36.180;2023-02-11T10:44:58;100652.00;;;-0.48;59.71
54666;BME280;40566;50.006;36.180;2023-02-11T10:49:59;100648.75;;;-0.44;60.03
54666;BME280;40566;50.006;36.180;2023-02-11T11:00:35;100624.41;;;-0.09;59.37
54666;BME280;40566;50.006;36.180;2023-02-11T11:05:45;100617.34;;;0.42;58.47
54666;BME280;40566;50.006;36.180;2023-02-11T11:11:01;100617.53;;;0.49;58.52
54666;BME280;40566;50.006;36.180;2023-02-11T11:21:18;100607.34;;;0.48;58.79
54666;BME280;40566;50.006;36.180;2023-02-11T11:26:20;100600.88;;;0.29;59.63
54666;BME280;40566;50.006;36.180;2023-02-11T11:31:24;100586.47;;;0.29;59.67
54666;BME280;40566;50.006;36.180;2023-02-11T11:36:33;100568.31;;;0.49;59.31
54666;BME280;40566;50.006;36.180;2023-02-11T11:41:34;100555.53;;;0.79;58.75
54666;BME280;40566;50.006;36.180;2023-02-11T11:46:39;100547.50;;;0.97;58.48
54666;BME280;40566;50.006;36.180;2023-02-11T11:51:45;100552.50;;;0.94;58.70
54666;BME280;40566;50.006;36.180;2023-02-11T11:57:01;100547.25;;;0.88;58.86
54666;BME280;40566;50.006;36.180;2023-02-11T12:29:18;100512.03;;;0.70;59.77
54666;BME280;40566;50.006;36.180;2023-02-11T12:45:08;100488.47;;;0.44;60.31
54666;BME280;40566;50.006;36.180;2023-02-11T12:50:40;100482.19;;;0.31;60.66
54666;BME280;40566;50.006;36.180;2023-02-11T12:55:47;100473.81;;;0.35;60.64
54666;BME280;40566;50.006;36.180;2023-02-11T13:00:59;100480.28;;;0.22;60.78
54666;BME280;40566;50.006;36.180;2023-02-11T13:06:10;100469.34;;;0.26;60.88
54666;BME280;40566;50.006;36.180;2023-02-11T13:11:16;100460.84;;;0.26;60.82
54666;BME280;40566;50.006;36.180;2023-02-11T13:32:10;100423.31;;;0.17;61.24
54666;BME280;40566;50.006;36.180;2023-02-11T13:42:26;100411.47;;;0.17;61.46
54666;BME280;40566;50.006;36.180;2023-02-11T13:47:30;100394.34;;;0.12;61.49
54666;BME280;40566;50.006;36.180;2023-02-11T13:52:36;100400.94;;;0.04;61.79
54666;BME280;40566;50.006;36.180;2023-02-11T13:57:39;100399.09;;;-0.02;61.92
54666;BME280;40566;50.006;36.180;2023-02-11T14:02:41;100380.19;;;-0.13;62.13
54666;BME280;40566;50.006;36.180;2023-02-11T14:13:34;100366.78;;;-0.40;62.92
54666;BME280;40566;50.006;36.180;2023-02-11T14:23:50;100353.91;;;-0.46;62.80
54666;BME280;40566;50.006;36.180;2023-02-11T14:29:02;100347.69;;;-0.57;62.95
54666;BME280;40566;50.006;36.180;2023-02-11T14:40:08;100348.13;;;-0.72;63.43
54666;BME280;40566;50.006;36.180;2023-02-11T14:45:15;100336.16;;;-0.76;63.58
54666;BME280;40566;50.006;36.180;2023-02-11T14:50:25;100335.25;;;-0.78;63.57
54666;BME280;40566;50.006;36.180;2023-02-11T14:55:34;100341.88;;;-0.83;63.76
54666;BME280;40566;50.006;36.180;2023-02-11T15:00:49;100339.16;;;-0.89;63.69
54666;BME280;40566;50.006;36.180;2023-02-11T15:05:58;100339.84;;;-0.95;63.86
54666;BME280;40566;50.006;36.180;2023-02-11T15:11:01;100342.06;;;-1.07;64.43
54666;BME280;40566;50.006;36.180;2023-02-11T15:16:07;100327.56;;;-1.11;64.49
54666;BME280;40566;50.006;36.180;2023-02-11T15:21:08;100320.78;;;-1.11;64.27
54666;BME280;40566;50.006;36.180;2023-02-11T15:26:13;100309.88;;;-1.08;64.06
54666;BME280;40566;50.006;36.180;2023-02-11T15:31:20;100329.13;;;-1.15;64.42
54666;BME280;40566;50.006;36.180;2023-02-11T15:36:24;100320.53;;;-1.20;64.42
54666;BME280;40566;50.006;36.180;2023-02-11T15:41:35;100316.03;;;-1.29;64.54
54666;BME280;40566;50.006;36.180;2023-02-11T15:46:38;100315.88;;;-1.35;64.90
54666;BME280;40566;50.006;36.180;2023-02-11T15:51:44;100314.22;;;-1.33;64.69
54666;BME280;40566;50.006;36.180;2023-02-11T15:56:48;100303.06;;;-1.40;64.78
54666;BME280;40566;50.006;36.180;2023-02-11T16:01:51;100306.16;;;-1.50;64.96
54666;BME280;40566;50.006;36.180;2023-02-11T16:06:54;100293.03;;;-1.64;65.44
54666;BME280;40566;50.006;36.180;2023-02-11T16:11:57;100285.03;;;-1.76;65.51
54666;BME280;40566;50.006;36.180;2023-02-11T16:17:02;100281.34;;;-1.86;65.71
54666;BME280;40566;50.006;36.180;2023-02-11T16:22:10;100274.63;;;-1.85;65.63
54666;BME280;40566;50.006;36.180;2023-02-11T16:32:26;100260.81;;;-1.68;65.49
54666;BME280;40566;50.006;36.180;2023-02-11T16:37:27;100253.09;;;-1.71;65.45
54666;BME280;40566;50.006;36.180;2023-02-11T16:42:28;100251.41;;;-1.70;65.62
54666;BME280;40566;50.006;36.180;2023-02-11T16:47:29;100245.38;;;-1.74;65.84
54666;BME280;40566;50.006;36.180;2023-02-11T16:52:30;100232.84;;;-1.69;65.67
54666;BME280;40566;50.006;36.180;2023-02-11T16:57:31;100221.13;;;-1.66;65.74
54666;BME280;40566;50.006;36.180;2023-02-11T17:02:33;100209.25;;;-1.67;65.84
54666;BME280;40566;50.006;36.180;2023-02-11T17:07:35;100218.59;;;-1.66;65.83
54666;BME280;40566;50.006;36.180;2023-02-11T17:12:35;100205.00;;;-1.68;65.93
54666;BME280;40566;50.006;36.180;2023-02-11T17:17:36;100197.41;;;-1.66;66.04
54666;BME280;40566;50.006;36.180;2023-02-11T17:22:37;100191.28;;;-1.74;66.24
54666;BME280;40566;50.006;36.180;2023-02-11T17:27:37;100191.38;;;-1.71;66.19
54666;BME280;40566;50.006;36.180;2023-02-11T17:32:38;100180.16;;;-1.80;66.50
54666;BME280;40566;50.006;36.180;2023-02-11T17:37:39;100175.94;;;-1.79;66.39
54666;BME280;40566;50.006;36.180;2023-02-11T17:42:40;100169.13;;;-1.80;66.61
54666;BME280;40566;50.006;36.180;2023-02-11T17:47:40;100162.34;;;-1.81;66.61
54666;BME280;40566;50.006;36.180;2023-02-11T17:52:41;100151.22;;;-1.86;66.63
54666;BME280;40566;50.006;36.180;2023-02-11T17:57:42;100142.56;;;-1.93;66.82
54666;BME280;40566;50.006;36.180;2023-02-11T18:02:42;100130.53;;;-2.00;67.17
54666;BME280;40566;50.006;36.180;2023-02-11T18:07:43;100126.25;;;-2.03;67.29
54666;BME280;40566;50.006;36.180;2023-02-11T18:12:43;100127.19;;;-1.99;67.23
54666;BME280;40566;50.006;36.180;2023-02-11T18:17:44;100121.34;;;-1.96;67.31
54666;BME280;40566;50.006;36.180;2023-02-11T18:22:44;100099.25;;;-2.01;67.48
54666;BME280;40566;50.006;36.180;2023-02-11T18:27:45;100090.81;;;-2.00;67.48
54666;BME280;40566;50.006;36.180;2023-02-11T18:32:46;100077.13;;;-2.06;67.72
54666;BME280;40566;50.006;36.180;2023-02-11T18:37:47;100074.53;;;-2.08;67.89
54666;BME280;40566;50.006;36.180;2023-02-11T18:42:47;100070.25;;;-2.10;68.04
54666;BME280;40566;50.006;36.180;2023-02-11T18:47:48;100064.50;;;-2.05;68.17
54666;BME280;40566;50.006;36.180;2023-02-11T18:52:50;100048.63;;;-1.99;67.84
54666;BME280;40566;50.006;36.180;2023-02-11T18:57:51;100051.22;;;-1.96;67.76
54666;BME280;40566;50.006;36.180;2023-02-11T19:02:52;100049.56;;;-1.95;67.92
54666;BME280;40566;50.006;36.180;2023-02-11T19:07:55;100043.66;;;-1.94;67.96
54666;BME280;40566;50.006;36.180;2023-02-11T19:12:56;100029.25;;;-1.97;68.12
54666;BME280;40566;50.006;36.180;2023-02-11T19:17:58;100028.47;;;-1.94;68.20
54666;BME280;40566;50.006;36.180;2023-02-11T19:22:59;100009.03;;;-1.94;68.23
54666;BME280;40566;50.006;36.180;2023-02-11T19:28:00;100004.16;;;-1.86;68.21
54666;BME280;40566;50.006;36.180;2023-02-11T19:33:00;99991.50;;;-1.86;68.27
54666;BME280;40566;50.006;36.180;2023-02-11T19:38:02;99975.44;;;-1.87;68.46
54666;BME280;40566;50.006;36.180;2023-02-11T19:43:03;99968.81;;;-1.82;68.58
54666;BME280;40566;50.006;36.180;2023-02-11T19:48:03;99957.00;;;-1.81;68.50
54666;BME280;40566;50.006;36.180;2023-02-11T19:53:04;99951.88;;;-1.83;68.70
54666;BME280;40566;50.006;36.180;2023-02-11T19:58:05;99932.44;;;-1.82;68.61
54666;BME280;40566;50.006;36.180;2023-02-11T20:03:05;99920.59;;;-1.83;68.82
54666;BME280;40566;50.006;36.180;2023-02-11T20:08:06;99919.81;;;-1.81;68.91
54666;BME280;40566;50.006;36.180;2023-02-11T20:13:07;99914.78;;;-1.79;69.13
54666;BME280;40566;50.006;36.180;2023-02-11T20:18:09;99905.59;;;-1.74;69.01
54666;BME280;40566;50.006;36.180;2023-02-11T20:23:09;99886.19;;;-1.72;69.19
54666;BME280;40566;50.006;36.180;2023-02-11T20:28:10;99885.44;;;-1.69;69.30
54666;BME280;40566;50.006;36.180;2023-02-11T20:33:10;99863.38;;;-1.72;69.70
54666;BME280;40566;50.006;36.180;2023-02-11T20:38:11;99844.78;;;-1.72;69.90
54666;BME280;40566;50.006;36.180;2023-02-11T20:43:12;99830.50;;;-1.69;69.81
54666;BME280;40566;50.006;36.180;2023-02-11T20:48:13;99833.16;;;-1.63;70.04
54666;BME280;40566;50.006;36.180;2023-02-11T20:53:13;99808.81;;;-1.56;69.91
54666;BME280;40566;50.006;36.180;2023-02-11T20:58:14;99811.44;;;-1.51;69.88
54666;BME280;40566;50.006;36.180;2023-02-11T21:03:15;99803.88;;;-1.48;70.03
54666;BME280;40566;50.006;36.180;2023-02-11T21:08:15;99797.34;;;-1.38;69.86
54666;BME280;40566;50.006;36.180;2023-02-11T21:13:16;99787.16;;;-1.42;69.91
54666;BME280;40566;50.006;36.180;2023-02-11T21:18:16;99789.72;;;-1.40;70.18
54666;BME280;40566;50.006;36.180;2023-02-11T21:23:17;99777.16;;;-1.32;70.18
54666;BME280;40566;50.006;36.180;2023-02-11T21:28:18;99766.16;;;-1.33;70.24
54666;BME280;40566;50.006;36.180;2023-02-11T21:33:24;99767.16;;;-1.26;70.31
54666;BME280;40566;50.006;36.180;2023-02-11T21:38:25;99747.00;;;-1.20;70.22
54666;BME280;40566;50.006;36.180;2023-02-11T21:43:26;99749.59;;;-1.15;70.42
54666;BME280;40566;50.006;36.180;2023-02-11T21:48:27;99738.59;;;-1.16;70.72
54666;BME280;40566;50.006;36.180;2023-02-11T21:53:27;99722.59;;;-1.12;70.71
54666;BME280;40566;50.006;36.180;2023-02-11T21:58:28;99715.91;;;-1.08;70.40
54666;BME280;40566;50.006;36.180;2023-02-11T22:03:28;99708.28;;;-1.08;70.75
54666;BME280;40566;50.006;36.180;2023-02-11T22:08:29;99698.16;;;-1.08;70.81
54666;BME280;40566;50.006;36.180;2023-02-11T22:13:30;99693.13;;;-1.04;70.90
54666;BME280;40566;50.006;36.180;2023-02-11T22:18:31;99684.75;;;-1.00;70.71
54666;BME280;40566;50.006;36.180;2023-02-11T22:23:32;99669.56;;;-0.98;70.82
54666;BME280;40566;50.006;36.180;2023-02-11T22:28:33;99672.13;;;-0.95;70.92
54666;BME280;40566;50.006;36.180;2023-02-11T22:33:34;99657.91;;;-0.85;70.76
54666;BME280;40566;50.006;36.180;2023-02-11T22:38:35;99652.88;;;-0.84;70.72
54666;BME280;40566;50.006;36.180;2023-02-11T22:43:36;99644.50;;;-0.78;70.75
54666;BME280;40566;50.006;36.180;2023-02-11T22:48:36;99622.53;;;-0.74;70.82
54666;BME280;40566;50.006;36.180;2023-02-11T22:53:37;99620.81;;;-0.75;71.12
54666;BME280;40566;50.006;36.180;2023-02-11T22:58:38;99603.88;;;-0.78;71.31
54666;BME280;40566;50.006;36.180;2023-02-11T23:03:38;99592.81;;;-0.82;71.78
54666;BME280;40566;50.006;36.180;2023-02-11T23:08:40;99584.31;;;-0.84;71.98
54666;BME280;40566;50.006;36.180;2023-02-11T23:13:43;99591.13;;;-0.80;71.92
54666;BME280;40566;50.006;36.180;2023-02-11T23:18:51;99576.84;;;-0.74;71.83
54666;BME280;40566;50.006;36.180;2023-02-11T23:24:00;99562.50;;;-0.69;71.82
54666;BME280;40566;50.006;36.180;2023-02-11T23:29:01;99565.91;;;-0.67;71.82
54666;BME280;40566;50.006;36.180;2023-02-11T23:34:02;99555.03;;;-0.60;71.63
54666;BME280;40566;50.006;36.180;2023-02-11T23:39:03;99555.06;;;-0.58;71.66
54666;BME280;40566;50.006;36.180;2023-02-11T23:44:04;99544.06;;;-0.56;71.50
54666;BME280;40566;50.006;36.180;2023-02-11T23:49:04;99548.28;;;-0.58;71.73
54666;BME280;40566;50.006;36.180;2023-02-11T23:54:05;99527.94;;;-0.61;72.03
54666;BME280;40566;50.006;36.180;2023-02-11T23:59:05;99523.72;;;-0.59;72.07
